Time;durP1;ratioP1;P1;durP2;ratioP2;P2;SDS_P1;SDS_P2;PMS_P1;PMS_P2;Temp;Humidity;BMP_temperature;BMP_pressure;BME280_temperature;BME280_humidity;BME280_pressure;Samples;Min_cycle;Max_cycle;Signal;HPM_P1;HPM_P2
2021/04/05 00:00:41;;;;;;;;;;;;;;;;;;1488224;40;19998;-85
2021/04/05 00:01:42;;;;;;;;;;;;;;;;;;1488637;40;19940;-84
2021/04/05 00:02:43;;;;;;;;;;;;;;;;;;1488191;40;19936;-85
2021/04/05 00:03:45;;;;;;;;;;;;;;;;;;1488186;40;19952;-83
2021/04/05 00:04:46;;;;;;;;;;;;;;;;;;1488064;40;20284;-83
2021/04/05 00:05:47;;;;;;;;;;;;;;;;;;1488902;39;20054;-83
2021/04/05 00:06:48;;;;;;;;;;;;;;;;;;1487934;39;19976;-83
2021/04/05 00:07:49;;;;;;;;;;;;;;;;;;1488557;40;20036;-85
2021/04/05 00:08:51;;;;;;;;;;;;;;;;;;1488418;40;20009;-84
2021/04/05 00:09:52;;;;;;;;;;;;;;;;;;1488341;40;19997;-87
2021/04/05 00:10:54;;;;;;;;;;;;;;;;;;1488331;40;19951;-88
2021/04/05 00:11:55;;;;;;;;;;;;;;;;;;1484797;40;19936;-88
2021/04/05 00:12:59;;;;;;;;;;;;;;;;;;1488400;40;20025;-83
2021/04/05 00:14:00;;;;;;;;;;;;;;;;;;1488334;40;19948;-85
2021/04/05 00:15:02;;;;;;;;;;;;;;;;;;1488175;40;19940;-83
2021/04/05 00:16:03;;;;;;;;;;;;;;;;;;1488974;39;20280;-84
2021/04/05 00:17:04;;;;;;;;;;;;;;;;;;1488778;39;19980;-86
2021/04/05 00:18:06;;;;;;;;;;;;;;;;;;1488979;39;20308;-82
2021/04/05 00:19:07;;;;;;;;;;;;;;;;;;1487450;39;19948;-84
2021/04/05 00:20:10;;;;;;;;;;;;;;;;;;1484294;40;19932;-84
2021/04/05 00:21:14;;;;;;;;;;;;;;;;;;1484206;40;19944;-82
2021/04/05 00:22:15;;;;;;;;;;;;;;;;;;1488396;40;19983;-87
2021/04/05 00:23:16;;;;;;;;;;;;;;;;;;1488741;39;20020;-86
2021/04/05 00:24:17;;;;;;;;;;;;;;;;;;1488322;40;19940;-83
2021/04/05 00:25:18;;;;;;;;;;;;;;;;;;1488550;40;19932;-84
2021/04/05 00:26:19;;;;;;;;;;;;;;;;;;1488737;40;19936;-84
2021/04/05 00:27:20;;;;;;;;;;;;;;;;;;1484096;40;20310;-81
2021/04/05 00:28:21;;;;;;;;;;;;;;;;;;1480006;40;19937;-81
2021/04/05 00:29:22;;;;;;;;;;;;;;;;;;1488460;39;19932;-81
2021/04/05 00:30:25;;;;;;;;;;;;;;;;;;1492435;39;19932;-82
2021/04/05 00:31:26;;;;;;;;;;;;;;;;;;1487206;39;19948;-82
2021/04/05 00:32:26;;;;;;;;;;;;;;;;;;1484013;40;20370;-82
2021/04/05 00:33:27;;;;;;;;;;;;;;;;;;1484102;40;19936;-82
2021/04/05 00:34:28;;;;;;;;;;;;;;;;;;1488570;39;19944;-81
2021/04/05 00:35:32;;;;;;;;;;;;;;;;;;1488853;39;19943;-81
2021/04/05 00:36:33;;;;;;;;;;;;;;;;;;1488069;39;19936;-81
2021/04/05 00:37:34;;;;;;;;;;;;;;;;;;1488531;40;20189;-82
2021/04/05 00:38:35;;;;;;;;;;;;;;;;;;1488732;39;19936;-81
2021/04/05 00:39:36;;;;;;;;;;;;;;;;;;1492408;39;20202;-82
2021/04/05 00:40:37;;;;;;;;;;;;;;;;;;1492371;39;19939;-84
2021/04/05 00:41:39;;;;;;;;;;;;;;;;;;1488311;40;19944;-83
2021/04/05 00:42:42;;;;;;;;;;;;;;;;;;1488333;40;19940;-83
2021/04/05 00:43:45;;;;;;;;;;;;;;;;;;1487475;39;19968;-87
2021/04/05 00:44:46;;;;;;;;;;;;;;;;;;1488128;40;20263;-85
2021/04/05 00:45:48;;;;;;;;;;;;;;;;;;1488917;39;19947;-84
2021/04/05 00:46:49;;;;;;;;;;;;;;;;;;1483681;40;20035;-83
2021/04/05 00:47:50;;;;;;;;;;;;;;;;;;1484304;40;19951;-83
2021/04/05 00:48:51;;;;;;;;;;;;;;;;;;1488667;40;19940;-83
2021/04/05 00:49:52;;;;;;;;;;;;;;;;;;1488869;39;19998;-84
2021/04/05 00:50:53;;;;;;;;;;;;;;;;;;1488698;39;19947;-83
2021/04/05 00:51:54;;;;;;;;;;;;;;;;;;1489046;40;19932;-86
2021/04/05 00:52:57;;;;;;;;;;;;;;;;;;1488245;40;20269;-85
2021/04/05 00:53:58;;;;;;;;;;;;;;;;;;1488484;40;19948;-82
2021/04/05 00:54:59;;;;;;;;;;;;;;;;;;1488228;40;19947;-82
2021/04/05 00:56:00;;;;;;;;;;;;;;;;;;1483005;39;20226;-80
2021/04/05 00:57:02;;;;;;;;;;;;;;;;;;1483724;40;19971;-82
2021/04/05 00:58:02;;;;;;;;;;;;;;;;;;1484329;40;19945;-81
2021/04/05 00:59:03;;;;;;;;;;;;;;;;;;1486901;39;19939;-82
2021/04/05 01:00:04;;;;;;;;;;;;;;;;;;1488326;40;19943;-81
2021/04/05 01:01:10;;;;;;;;;;;;;;;;;;1488170;40;19936;-80
2021/04/05 01:02:12;;;;;;;;;;;;;;;;;;1488637;39;20012;-80
2021/04/05 01:03:17;;;;;;;;;;;;;;;;;;1488717;39;19986;-80
2021/04/05 01:04:18;;;;;;;;;;;;;;;;;;1488343;40;19987;-80
2021/04/05 01:05:19;;;;;;;;;;;;;;;;;;1487959;40;19944;-79
2021/04/05 01:06:30;;;;;;;;;;;;;;;;;;1488146;40;19936;-79
2021/04/05 01:07:31;;;;;;;;;;;;;;;;;;1488216;40;19936;-79
2021/04/05 01:08:32;;;;;;;;;;;;;;;;;;1488535;40;19959;-78
2021/04/05 01:09:34;;;;;;;;;;;;;;;;;;1483921;40;19984;-78
2021/04/05 01:10:35;;;;;;;;;;;;;;;;;;1488310;40;19948;-78
2021/04/05 01:11:35;;;;;;;;;;;;;;;;;;1484228;40;19980;-79
2021/04/05 01:12:37;;;;;;;;;;;;;;;;;;1484631;39;20028;-80
2021/04/05 01:13:38;;;;;;;;;;;;;;;;;;1492643;39;19954;-79
2021/04/05 01:14:39;;;;;;;;;;;;;;;;;;1488963;39;20295;-78
2021/04/05 01:15:40;;;;;;;;;;;;;;;;;;1488617;40;19937;-79
2021/04/05 01:16:41;;;;;;;;;;;;;;;;;;1488008;40;19947;-79
2021/04/05 01:17:42;;;;;;;;;;;;;;;;;;1484141;40;19945;-78
2021/04/05 01:18:43;;;;;;;;;;;;;;;;;;1488222;40;20328;-78
2021/04/05 01:19:44;;;;;;;;;;;;;;;;;;1483991;40;20027;-78
2021/04/05 01:20:45;;;;;;;;;;;;;;;;;;1484096;40;19937;-78
2021/04/05 01:21:47;;;;;;;;;;;;;;;;;;1488205;40;20002;-78
2021/04/05 01:22:50;;;;;;;;;;;;;;;;;;1488182;40;20024;-77
2021/04/05 01:23:51;;;;;;;;;;;;;;;;;;1488246;40;19976;-79
2021/04/05 01:24:53;;;;;;;;;;;;;;;;;;1488289;40;19936;-78
2021/04/05 01:25:54;;;;;;;;;;;;;;;;;;1487990;40;20253;-78
2021/04/05 01:26:55;;;;;;;;;;;;;;;;;;1488878;39;19938;-78
2021/04/05 01:27:56;;;;;;;;;;;;;;;;;;1488271;40;20039;-78
2021/04/05 01:28:57;;;;;;;;;;;;;;;;;;1488314;39;19974;-79
2021/04/05 01:29:57;;;;;;;;;;;;;;;;;;1488696;39;20289;-79
2021/04/05 01:30:59;;;;;;;;;;;;;;;;;;1488092;40;20281;-79
2021/04/05 01:32:01;;;;;;;;;;;;;;;;;;1487969;40;19955;-79
2021/04/05 01:33:04;;;;;;;;;;;;;;;;;;1488302;39;20021;-79
2021/04/05 01:34:05;;;;;;;;;;;;;;;;;;1492394;39;20001;-80
2021/04/05 01:35:07;;;;;;;;;;;;;;;;;;1488310;40;20071;-80
2021/04/05 01:36:10;;;;;;;;;;;;;;;;;;1483898;40;19997;-81
2021/04/05 01:37:11;;;;;;;;;;;;;;;;;;1488315;40;19994;-81
2021/04/05 01:38:13;;;;;;;;;;;;;;;;;;1488634;39;20280;-80
2021/04/05 01:39:14;;;;;;;;;;;;;;;;;;1488679;39;20174;-80
2021/04/05 01:40:15;;;;;;;;;;;;;;;;;;1483946;40;19989;-80
2021/04/05 01:41:17;;;;;;;;;;;;;;;;;;1483644;40;19967;-79
2021/04/05 01:42:18;;;;;;;;;;;;;;;;;;1488384;39;19936;-81
2021/04/05 01:43:19;;;;;;;;;;;;;;;;;;1492236;39;19948;-79
2021/04/05 01:44:20;;;;;;;;;;;;;;;;;;1488384;40;19939;-80
2021/04/05 01:45:21;;;;;;;;;;;;;;;;;;1488293;40;19936;-80
2021/04/05 01:46:23;;;;;;;;;;;;;;;;;;1488134;40;19936;-81
2021/04/05 01:47:24;;;;;;;;;;;;;;;;;;1488264;39;20277;-82
2021/04/05 01:48:26;;;;;;;;;;;;;;;;;;1487651;39;19942;-82
2021/04/05 01:49:28;;;;;;;;;;;;;;;;;;1487945;39;19976;-81
2021/04/05 01:50:30;;;;;;;;;;;;;;;;;;1488148;39;19940;-81
2021/04/05 01:51:31;;;;;;;;;;;;;;;;;;1488152;40;20186;-80
2021/04/05 01:52:31;;;;;;;;;;;;;;;;;;1483870;40;20003;-79
2021/04/05 01:53:33;;;;;;;;;;;;;;;;;;1488159;40;19947;-79
2021/04/05 01:54:34;;;;;;;;;;;;;;;;;;1488801;39;19965;-79
2021/04/05 01:55:36;;;;;;;;;;;;;;;;;;1488649;39;20401;-79
2021/04/05 01:56:37;;;;;;;;;;;;;;;;;;1484008;40;19963;-79
2021/04/05 01:57:38;;;;;;;;;;;;;;;;;;1483859;40;20334;-79
2021/04/05 01:58:40;;;;;;;;;;;;;;;;;;1488079;39;19980;-79
2021/04/05 01:59:43;;;;;;;;;;;;;;;;;;1488065;40;19943;-79
2021/04/05 02:00:44;;;;;;;;;;;;;;;;;;1488238;40;19975;-79
2021/04/05 02:01:45;;;;;;;;;;;;;;;;;;1488285;39;19968;-79
2021/04/05 02:02:46;;;;;;;;;;;;;;;;;;1488276;40;20191;-79
2021/04/05 02:03:47;;;;;;;;;;;;;;;;;;1487950;40;19952;-79
2021/04/05 02:04:48;;;;;;;;;;;;;;;;;;1488075;40;19940;-79
2021/04/05 02:05:56;;;;;;;;;;;;;;;;;;1487964;40;19940;-79
2021/04/05 02:06:57;;;;;;;;;;;;;;;;;;1488211;40;20322;-79
2021/04/05 02:07:58;;;;;;;;;;;;;;;;;;1487965;40;20025;-79
2021/04/05 02:09:00;;;;;;;;;;;;;;;;;;1488539;39;20281;-79
2021/04/05 02:10:01;;;;;;;;;;;;;;;;;;1488443;39;20303;-79
2021/04/05 02:11:06;;;;;;;;;;;;;;;;;;1488041;40;19936;-79
2021/04/05 02:12:07;;;;;;;;;;;;;;;;;;1488221;40;19967;-79
2021/04/05 02:13:08;;;;;;;;;;;;;;;;;;1488076;40;20054;-79
2021/04/05 02:14:10;;;;;;;;;;;;;;;;;;1483946;40;19936;-78
2021/04/05 02:15:12;;;;;;;;;;;;;;;;;;1484019;39;19941;-79
2021/04/05 02:16:16;;;;;;;;;;;;;;;;;;1487880;40;19947;-79
2021/04/05 02:17:18;;;;;;;;;;;;;;;;;;1487869;40;20042;-80
2021/04/05 02:18:21;;;;;;;;;;;;;;;;;;1488041;40;19944;-80
2021/04/05 02:19:22;;;;;;;;;;;;;;;;;;1488181;40;20037;-80
2021/04/05 02:20:23;;;;;;;;;;;;;;;;;;1488532;39;20285;-80
2021/04/05 02:21:25;;;;;;;;;;;;;;;;;;1487929;40;19996;-79
2021/04/05 02:22:26;;;;;;;;;;;;;;;;;;1483813;40;20276;-80
2021/04/05 02:23:27;;;;;;;;;;;;;;;;;;1488043;40;20032;-80
2021/04/05 02:24:28;;;;;;;;;;;;;;;;;;1487850;40;20054;-79
2021/04/05 02:25:31;;;;;;;;;;;;;;;;;;1483815;40;20374;-79
2021/04/05 02:26:33;;;;;;;;;;;;;;;;;;1488048;39;19984;-80
2021/04/05 02:27:34;;;;;;;;;;;;;;;;;;1492039;39;20309;-80
2021/04/05 02:28:35;;;;;;;;;;;;;;;;;;1483793;40;19948;-79
2021/04/05 02:29:37;;;;;;;;;;;;;;;;;;1483880;40;19940;-80
2021/04/05 02:30:37;;;;;;;;;;;;;;;;;;1487746;40;20297;-78
2021/04/05 02:31:42;;;;;;;;;;;;;;;;;;1488062;40;19940;-80
2021/04/05 02:32:43;;;;;;;;;;;;;;;;;;1488134;39;19980;-79
2021/04/05 02:33:46;;;;;;;;;;;;;;;;;;1487949;40;19936;-79
2021/04/05 02:34:47;;;;;;;;;;;;;;;;;;1487982;40;20055;-79
2021/04/05 02:35:49;;;;;;;;;;;;;;;;;;1488495;39;20310;-79
2021/04/05 02:36:50;;;;;;;;;;;;;;;;;;1488497;39;19943;-79
2021/04/05 02:37:52;;;;;;;;;;;;;;;;;;1483985;40;19948;-79
2021/04/05 02:38:54;;;;;;;;;;;;;;;;;;1484001;40;19948;-79
2021/04/05 02:39:55;;;;;;;;;;;;;;;;;;1488670;39;20042;-80
2021/04/05 02:40:56;;;;;;;;;;;;;;;;;;1488002;40;20091;-80
2021/04/05 02:41:57;;;;;;;;;;;;;;;;;;1483710;40;20300;-80
2021/04/05 02:42:58;;;;;;;;;;;;;;;;;;1487874;40;19936;-80
2021/04/05 02:44:00;;;;;;;;;;;;;;;;;;1488621;39;20054;-80
2021/04/05 02:45:01;;;;;;;;;;;;;;;;;;1488492;40;19984;-79
2021/04/05 02:46:03;;;;;;;;;;;;;;;;;;1483737;40;19969;-79
2021/04/05 02:47:05;;;;;;;;;;;;;;;;;;1483464;40;20368;-80
2021/04/05 02:48:07;;;;;;;;;;;;;;;;;;1488019;40;19940;-80
2021/04/05 02:49:12;;;;;;;;;;;;;;;;;;1488104;40;19943;-79
2021/04/05 02:50:13;;;;;;;;;;;;;;;;;;1488601;39;19968;-79
2021/04/05 02:51:15;;;;;;;;;;;;;;;;;;1488007;40;19965;-79
2021/04/05 02:52:16;;;;;;;;;;;;;;;;;;1487803;40;19944;-79
2021/04/05 02:53:18;;;;;;;;;;;;;;;;;;1488071;39;19932;-79
2021/04/05 02:54:19;;;;;;;;;;;;;;;;;;1492121;39;19963;-80
2021/04/05 02:55:20;;;;;;;;;;;;;;;;;;1488091;39;19959;-80
2021/04/05 02:56:21;;;;;;;;;;;;;;;;;;1487961;40;20068;-79
2021/04/05 02:57:23;;;;;;;;;;;;;;;;;;1487954;40;20006;-80
2021/04/05 02:58:24;;;;;;;;;;;;;;;;;;1487919;40;20240;-79
2021/04/05 02:59:25;;;;;;;;;;;;;;;;;;1488081;39;19939;-80
2021/04/05 03:00:27;;;;;;;;;;;;;;;;;;1484119;40;19991;-81
2021/04/05 03:01:28;;;;;;;;;;;;;;;;;;1484441;40;20269;-79
2021/04/05 03:02:30;;;;;;;;;;;;;;;;;;1488356;40;19936;-79
2021/04/05 03:03:31;;;;;;;;;;;;;;;;;;1488516;40;19972;-79
2021/04/05 03:04:32;;;;;;;;;;;;;;;;;;1488474;40;20439;-80
2021/04/05 03:05:33;;;;;;;;;;;;;;;;;;1488601;40;19940;-80
2021/04/05 03:06:35;;;;;;;;;;;;;;;;;;1488633;40;19974;-79
2021/04/05 03:07:36;;;;;;;;;;;;;;;;;;1489112;39;19972;-79
2021/04/05 03:08:37;;;;;;;;;;;;;;;;;;1489234;39;19936;-79
2021/04/05 03:09:39;;;;;;;;;;;;;;;;;;1489039;39;19943;-79
2021/04/05 03:10:40;;;;;;;;;;;;;;;;;;1488419;40;20437;-80
2021/04/05 03:11:43;;;;;;;;;;;;;;;;;;1488574;40;19940;-80
2021/04/05 03:12:47;;;;;;;;;;;;;;;;;;1489021;39;19948;-80
2021/04/05 03:13:49;;;;;;;;;;;;;;;;;;1489144;39;20054;-79
2021/04/05 03:14:50;;;;;;;;;;;;;;;;;;1489107;39;19959;-80
2021/04/05 03:15:51;;;;;;;;;;;;;;;;;;1488637;40;19936;-80
2021/04/05 03:16:52;;;;;;;;;;;;;;;;;;1484385;40;19952;-80
2021/04/05 03:17:58;;;;;;;;;;;;;;;;;;1488194;40;20302;-80
2021/04/05 03:19:01;;;;;;;;;;;;;;;;;;1488667;40;19988;-80
2021/04/05 03:20:03;;;;;;;;;;;;;;;;;;1488690;40;20058;-80
2021/04/05 03:21:06;;;;;;;;;;;;;;;;;;1488823;40;19936;-79
2021/04/05 03:22:08;;;;;;;;;;;;;;;;;;1489013;39;20268;-79
2021/04/05 03:23:09;;;;;;;;;;;;;;;;;;1488314;40;19947;-78
2021/04/05 03:24:11;;;;;;;;;;;;;;;;;;1488550;40;19936;-80
2021/04/05 03:25:12;;;;;;;;;;;;;;;;;;1488281;40;20328;-79
2021/04/05 03:26:13;;;;;;;;;;;;;;;;;;1488595;40;19936;-80
2021/04/05 03:27:14;;;;;;;;;;;;;;;;;;1488572;39;20273;-79
2021/04/05 03:28:15;;;;;;;;;;;;;;;;;;1492805;39;19944;-80
2021/04/05 03:29:16;;;;;;;;;;;;;;;;;;1489286;39;19975;-80
2021/04/05 03:30:31;;;;;;;;;;;;;;;;;;1489340;39;19940;-80
2021/04/05 03:31:33;;;;;;;;;;;;;;;;;;1488601;40;19968;-79
2021/04/05 03:32:36;;;;;;;;;;;;;;;;;;1488310;40;20488;-80
2021/04/05 03:33:37;;;;;;;;;;;;;;;;;;1488706;40;20047;-79
2021/04/05 03:34:39;;;;;;;;;;;;;;;;;;1489226;40;19943;-80
2021/04/05 03:35:42;;;;;;;;;;;;;;;;;;1488868;40;19947;-79
2021/04/05 03:37:00;;;;;;;;;;;;;;;;;;1489574;39;19947;-80
2021/04/05 03:38:02;;;;;;;;;;;;;;;;;;1489393;39;19948;-82
2021/04/05 03:39:04;;;;;;;;;;;;;;;;;;1489607;39;19947;-80
2021/04/05 03:40:07;;;;;;;;;;;;;;;;;;1488545;40;19975;-81
2021/04/05 03:41:23;;;;;;;;;;;;;;;;;;1488402;40;19947;-81
2021/04/05 03:42:41;;;;;;;;;;;;;;;;;;1488461;40;19975;-81
2021/04/05 03:43:46;;;;;;;;;;;;;;;;;;1488502;40;19936;-79
2021/04/05 03:44:53;;;;;;;;;;;;;;;;;;1488632;40;19940;-80
2021/04/05 03:45:57;;;;;;;;;;;;;;;;;;1488485;40;19936;-81
2021/04/05 03:47:01;;;;;;;;;;;;;;;;;;1488484;40;19952;-81
2021/04/05 03:48:02;;;;;;;;;;;;;;;;;;1488736;39;19947;-81
2021/04/05 03:49:06;;;;;;;;;;;;;;;;;;1488654;40;19947;-81
2021/04/05 03:50:18;;;;;;;;;;;;;;;;;;1488466;40;19995;-80
2021/04/05 03:51:23;;;;;;;;;;;;;;;;;;1489135;39;19943;-81
2021/04/05 03:52:29;;;;;;;;;;;;;;;;;;1488966;39;19979;-81
2021/04/05 03:53:39;;;;;;;;;;;;;;;;;;1489096;39;19944;-80
2021/04/05 03:54:46;;;;;;;;;;;;;;;;;;1488481;40;20018;-81
2021/04/05 03:55:51;;;;;;;;;;;;;;;;;;1488368;40;19971;-81
2021/04/05 03:56:53;;;;;;;;;;;;;;;;;;1489187;39;19936;-81
2021/04/05 03:57:56;;;;;;;;;;;;;;;;;;1488903;39;19993;-81
2021/04/05 03:59:01;;;;;;;;;;;;;;;;;;1488859;39;20325;-83
2021/04/05 04:00:08;;;;;;;;;;;;;;;;;;1489067;39;19968;-81
2021/04/05 04:01:11;;;;;;;;;;;;;;;;;;1488465;40;19943;-82
2021/04/05 04:02:16;;;;;;;;;;;;;;;;;;1488012;39;19991;-81
2021/04/05 04:03:17;;;;;;;;;;;;;;;;;;1488484;40;19936;-81
2021/04/05 04:04:26;;;;;;;;;;;;;;;;;;1488448;40;20017;-82
2021/04/05 04:06:40;;;;;;;;;;;;;;;;;;1489023;40;20286;-80
2021/04/05 04:08:45;;;;;;;;;;;;;;;;;;1488398;40;19972;-82
2021/04/05 04:09:48;;;;;;;;;;;;;;;;;;1488819;39;20300;-82
2021/04/05 04:10:51;;;;;;;;;;;;;;;;;;1488306;40;19940;-82
2021/04/05 04:11:55;;;;;;;;;;;;;;;;;;1488030;39;19951;-82
2021/04/05 04:12:57;;;;;;;;;;;;;;;;;;1488458;40;19967;-80
2021/04/05 04:14:02;;;;;;;;;;;;;;;;;;1488582;40;19936;-81
2021/04/05 04:15:05;;;;;;;;;;;;;;;;;;1488771;39;20190;-82
2021/04/05 04:16:08;;;;;;;;;;;;;;;;;;1488486;40;19990;-81
2021/04/05 04:17:09;;;;;;;;;;;;;;;;;;1488119;40;19951;-82
2021/04/05 04:18:10;;;;;;;;;;;;;;;;;;1488963;39;20042;-80
2021/04/05 04:19:12;;;;;;;;;;;;;;;;;;1488765;40;19959;-79
2021/04/05 04:20:15;;;;;;;;;;;;;;;;;;1488525;40;19944;-78
2021/04/05 04:21:17;;;;;;;;;;;;;;;;;;1488416;40;20324;-80
2021/04/05 04:22:18;;;;;;;;;;;;;;;;;;1488315;40;20288;-80
2021/04/05 04:23:19;;;;;;;;;;;;;;;;;;1488369;40;20284;-81
2021/04/05 04:24:20;;;;;;;;;;;;;;;;;;1489023;39;19932;-80
2021/04/05 04:25:22;;;;;;;;;;;;;;;;;;1484037;40;20375;-79
2021/04/05 04:26:24;;;;;;;;;;;;;;;;;;1484158;40;19967;-79
2021/04/05 04:27:25;;;;;;;;;;;;;;;;;;1488367;40;19945;-80
2021/04/05 04:28:27;;;;;;;;;;;;;;;;;;1488328;40;19955;-79
2021/04/05 04:29:28;;;;;;;;;;;;;;;;;;1488235;39;19955;-79
2021/04/05 04:30:32;;;;;;;;;;;;;;;;;;1488279;40;20239;-80
2021/04/05 04:31:34;;;;;;;;;;;;;;;;;;1488703;39;19972;-79
2021/04/05 04:32:35;;;;;;;;;;;;;;;;;;1483851;40;19984;-79
2021/04/05 04:33:36;;;;;;;;;;;;;;;;;;1479870;40;20321;-79
2021/04/05 04:34:37;;;;;;;;;;;;;;;;;;1484297;40;19948;-79
2021/04/05 04:35:38;;;;;;;;;;;;;;;;;;1488314;39;19947;-79
2021/04/05 04:36:39;;;;;;;;;;;;;;;;;;1488732;39;20600;-81
2021/04/05 04:37:40;;;;;;;;;;;;;;;;;;1488710;40;19936;-80
2021/04/05 04:38:41;;;;;;;;;;;;;;;;;;1488402;40;20003;-80
2021/04/05 04:39:43;;;;;;;;;;;;;;;;;;1484252;40;19940;-80
2021/04/05 04:40:44;;;;;;;;;;;;;;;;;;1484305;40;20032;-80
2021/04/05 04:41:46;;;;;;;;;;;;;;;;;;1488236;40;19943;-80
2021/04/05 04:42:47;;;;;;;;;;;;;;;;;;1488555;40;19956;-80
2021/04/05 04:43:52;;;;;;;;;;;;;;;;;;1488849;39;19943;-79
2021/04/05 04:44:53;;;;;;;;;;;;;;;;;;1488307;40;20293;-81
2021/04/05 04:45:54;;;;;;;;;;;;;;;;;;1484159;40;19937;-79
2021/04/05 04:46:55;;;;;;;;;;;;;;;;;;1484238;40;20606;-82
2021/04/05 04:47:56;;;;;;;;;;;;;;;;;;1483681;40;20005;-79
2021/04/05 04:48:58;;;;;;;;;;;;;;;;;;1484218;40;19944;-79
2021/04/05 04:49:59;;;;;;;;;;;;;;;;;;1484159;40;20315;-80
2021/04/05 04:51:00;;;;;;;;;;;;;;;;;;1488279;39;19939;-80
2021/04/05 04:52:01;;;;;;;;;;;;;;;;;;1484117;40;20209;-81
2021/04/05 04:53:02;;;;;;;;;;;;;;;;;;1488307;40;19943;-79
2021/04/05 04:54:05;;;;;;;;;;;;;;;;;;1488804;39;19940;-80
2021/04/05 04:55:06;;;;;;;;;;;;;;;;;;1488785;39;19978;-79
2021/04/05 04:56:07;;;;;;;;;;;;;;;;;;1488240;40;20035;-80
2021/04/05 04:57:08;;;;;;;;;;;;;;;;;;1488244;39;19947;-80
2021/04/05 04:58:09;;;;;;;;;;;;;;;;;;1488293;40;19940;-79
2021/04/05 04:59:11;;;;;;;;;;;;;;;;;;1488085;39;19932;-79
2021/04/05 05:00:13;;;;;;;;;;;;;;;;;;1488927;39;19947;-80
2021/04/05 05:01:14;;;;;;;;;;;;;;;;;;1488279;40;20294;-80
2021/04/05 05:02:15;;;;;;;;;;;;;;;;;;1483824;40;20034;-80
2021/04/05 05:03:17;;;;;;;;;;;;;;;;;;1488330;40;19940;-79
2021/04/05 05:04:25;;;;;;;;;;;;;;;;;;1488294;40;19940;-80
2021/04/05 05:05:31;;;;;;;;;;;;;;;;;;1488818;39;19944;-80
2021/04/05 05:06:33;;;;;;;;;;;;;;;;;;1488655;39;19951;-80
2021/04/05 05:07:35;;;;;;;;;;;;;;;;;;1488146;40;20269;-81
2021/04/05 05:08:36;;;;;;;;;;;;;;;;;;1488394;40;19948;-80
2021/04/05 05:09:38;;;;;;;;;;;;;;;;;;1488126;40;20263;-80
2021/04/05 05:10:39;;;;;;;;;;;;;;;;;;1488288;40;19935;-80
2021/04/05 05:11:40;;;;;;;;;;;;;;;;;;1484150;40;19941;-80
2021/04/05 05:12:42;;;;;;;;;;;;;;;;;;1488383;40;20016;-80
2021/04/05 05:13:43;;;;;;;;;;;;;;;;;;1488767;39;19936;-80
2021/04/05 05:14:46;;;;;;;;;;;;;;;;;;1488208;40;20657;-81
2021/04/05 05:15:47;;;;;;;;;;;;;;;;;;1488212;40;20022;-82
2021/04/05 05:16:48;;;;;;;;;;;;;;;;;;1488188;40;20321;-80
2021/04/05 05:17:50;;;;;;;;;;;;;;;;;;1483839;40;19976;-80
2021/04/05 05:18:54;;;;;;;;;;;;;;;;;;1488323;39;20312;-80
2021/04/05 05:19:56;;;;;;;;;;;;;;;;;;1491971;39;19932;-81
2021/04/05 05:20:57;;;;;;;;;;;;;;;;;;1488196;40;19936;-81
2021/04/05 05:22:00;;;;;;;;;;;;;;;;;;1483984;40;19984;-81
2021/04/05 05:23:02;;;;;;;;;;;;;;;;;;1484070;40;20042;-81
2021/04/05 05:24:05;;;;;;;;;;;;;;;;;;1488366;39;19936;-81
2021/04/05 05:25:06;;;;;;;;;;;;;;;;;;1488299;40;19947;-81
2021/04/05 05:26:08;;;;;;;;;;;;;;;;;;1488243;40;19943;-81
2021/04/05 05:27:10;;;;;;;;;;;;;;;;;;1488233;40;19980;-81
2021/04/05 05:28:12;;;;;;;;;;;;;;;;;;1488081;40;20416;-81
2021/04/05 05:29:13;;;;;;;;;;;;;;;;;;1488238;39;19943;-81
2021/04/05 05:30:20;;;;;;;;;;;;;;;;;;1488030;40;20393;-80
2021/04/05 05:31:21;;;;;;;;;;;;;;;;;;1488419;40;20200;-81
2021/04/05 05:32:22;;;;;;;;;;;;;;;;;;1488447;40;19932;-80
2021/04/05 05:33:23;;;;;;;;;;;;;;;;;;1488928;39;19974;-80
2021/04/05 05:34:24;;;;;;;;;;;;;;;;;;1488530;39;20359;-80
2021/04/05 05:35:26;;;;;;;;;;;;;;;;;;1488752;39;19947;-80
2021/04/05 05:36:27;;;;;;;;;;;;;;;;;;1488500;39;20044;-80
2021/04/05 05:37:28;;;;;;;;;;;;;;;;;;1483953;40;19994;-81
2021/04/05 05:38:29;;;;;;;;;;;;;;;;;;1483856;40;19972;-80
2021/04/05 05:39:30;;;;;;;;;;;;;;;;;;1488275;40;19947;-80
2021/04/05 05:40:31;;;;;;;;;;;;;;;;;;1488127;40;19948;-81
2021/04/05 05:41:32;;;;;;;;;;;;;;;;;;1488039;40;19944;-81
2021/04/05 05:42:40;;;;;;;;;;;;;;;;;;1488754;40;19932;-80
2021/04/05 05:43:45;;;;;;;;;;;;;;;;;;1488662;39;20269;-80
2021/04/05 05:44:51;;;;;;;;;;;;;;;;;;1488081;40;19992;-80
2021/04/05 05:45:52;;;;;;;;;;;;;;;;;;1488305;40;19980;-80
2021/04/05 05:46:56;;;;;;;;;;;;;;;;;;1488499;39;19936;-80
2021/04/05 05:48:04;;;;;;;;;;;;;;;;;;1488031;40;19976;-80
2021/04/05 05:49:05;;;;;;;;;;;;;;;;;;1484718;40;19988;-80
2021/04/05 05:50:25;;;;;;;;;;;;;;;;;;1488274;40;20003;-80
2021/04/05 05:51:44;;;;;;;;;;;;;;;;;;1488053;40;19943;-80
2021/04/05 05:53:04;;;;;;;;;;;;;;;;;;1488288;40;19940;-80
2021/04/05 05:54:26;;;;;;;;;;;;;;;;;;1488734;39;19970;-80
2021/04/05 05:55:50;;;;;;;;;;;;;;;;;;1487979;40;19984;-80
2021/04/05 05:56:56;;;;;;;;;;;;;;;;;;1488041;39;19948;-79
2021/04/05 05:58:16;;;;;;;;;;;;;;;;;;1488730;39;19948;-79
2021/04/05 05:59:29;;;;;;;;;;;;;;;;;;1488252;39;19944;-79
2021/04/05 06:00:32;;;;;;;;;;;;;;;;;;1488262;40;20339;-80
2021/04/05 06:01:52;;;;;;;;;;;;;;;;;;1488121;39;19932;-81
2021/04/05 06:03:11;;;;;;;;;;;;;;;;;;1488035;40;20021;-80
2021/04/05 06:04:21;;;;;;;;;;;;;;;;;;1488124;40;19940;-80
2021/04/05 06:05:34;;;;;;;;;;;;;;;;;;1488042;40;20035;-80
2021/04/05 06:06:54;;;;;;;;;;;;;;;;;;1488174;40;20293;-80
2021/04/05 06:08:06;;;;;;;;;;;;;;;;;;1488666;40;20026;-79
2021/04/05 06:09:26;;;;;;;;;;;;;;;;;;1488560;39;20285;-79
2021/04/05 06:10:45;;;;;;;;;;;;;;;;;;1487950;40;19951;-79
2021/04/05 06:11:59;;;;;;;;;;;;;;;;;;1488057;40;20407;-79
2021/04/05 06:13:08;;;;;;;;;;;;;;;;;;1488655;39;19948;-80
2021/04/05 06:14:09;;;;;;;;;;;;;;;;;;1488183;40;19933;-80
2021/04/05 06:15:11;;;;;;;;;;;;;;;;;;1488343;40;20048;-79
2021/04/05 06:16:30;;;;;;;;;;;;;;;;;;1488799;39;19959;-79
2021/04/05 06:17:31;;;;;;;;;;;;;;;;;;1488199;39;19944;-79
2021/04/05 06:18:32;;;;;;;;;;;;;;;;;;1488633;39;19932;-80
2021/04/05 06:19:46;;;;;;;;;;;;;;;;;;1488353;40;20060;-81
2021/04/05 06:20:54;;;;;;;;;;;;;;;;;;1487948;40;20292;-81
2021/04/05 06:21:57;;;;;;;;;;;;;;;;;;1488070;40;19940;-81
2021/04/05 06:23:17;;;;;;;;;;;;;;;;;;1488108;40;20073;-81
2021/04/05 06:24:37;;;;;;;;;;;;;;;;;;1488026;40;19951;-80
2021/04/05 06:25:38;;;;;;;;;;;;;;;;;;1488003;40;19948;-81
2021/04/05 06:26:51;;;;;;;;;;;;;;;;;;1488083;40;19959;-80
2021/04/05 06:28:01;;;;;;;;;;;;;;;;;;1488178;40;19984;-80
2021/04/05 06:29:16;;;;;;;;;;;;;;;;;;1488711;39;19936;-80
2021/04/05 06:30:25;;;;;;;;;;;;;;;;;;1488405;39;20312;-81
2021/04/05 06:31:41;;;;;;;;;;;;;;;;;;1488357;39;19947;-80
2021/04/05 06:33:09;;;;;;;;;;;;;;;;;;1488146;39;19944;-80
2021/04/05 06:34:20;;;;;;;;;;;;;;;;;;1487428;39;19984;-81
2021/04/05 06:35:30;;;;;;;;;;;;;;;;;;1489218;39;19941;-81
2021/04/05 06:36:48;;;;;;;;;;;;;;;;;;1488399;39;19944;-81
2021/04/05 06:37:55;;;;;;;;;;;;;;;;;;1488971;40;19936;-80
2021/04/05 06:39:16;;;;;;;;;;;;;;;;;;1489087;39;20427;-80
2021/04/05 06:40:17;;;;;;;;;;;;;;;;;;1489392;39;19952;-80
2021/04/05 06:41:18;;;;;;;;;;;;;;;;;;1488658;40;19936;-80
2021/04/05 06:42:38;;;;;;;;;;;;;;;;;;1488779;40;19947;-79
2021/04/05 06:43:44;;;;;;;;;;;;;;;;;;1490092;39;19980;-79
2021/04/05 06:45:05;;;;;;;;;;;;;;;;;;1488757;40;19959;-79
2021/04/05 06:46:06;;;;;;;;;;;;;;;;;;1475484;40;19996;-80
2021/04/05 06:47:11;;;;;;;;;;;;;;;;;;1485968;40;20040;-79
2021/04/05 06:48:20;;;;;;;;;;;;;;;;;;1488427;40;19948;-79
2021/04/05 06:49:33;;;;;;;;;;;;;;;;;;1488815;39;20005;-80
2021/04/05 06:50:44;;;;;;;;;;;;;;;;;;1489349;39;19940;-79
2021/04/05 06:51:48;;;;;;;;;;;;;;;;;;1488981;39;19951;-79
2021/04/05 06:53:08;;;;;;;;;;;;;;;;;;1489211;40;19956;-79
2021/04/05 06:54:28;;;;;;;;;;;;;;;;;;1488537;40;20240;-79
2021/04/05 06:55:47;;;;;;;;;;;;;;;;;;1488513;40;19972;-79
2021/04/05 06:57:07;;;;;;;;;;;;;;;;;;1488730;40;20054;-79
2021/04/05 06:58:07;;;;;;;;;;;;;;;;;;1489146;40;19943;-79
2021/04/05 06:59:29;;;;;;;;;;;;;;;;;;1488618;39;20066;-78
2021/04/05 07:00:48;;;;;;;;;;;;;;;;;;1485734;40;19947;-78
2021/04/05 07:01:49;;;;;;;;;;;;;;;;;;1485654;40;19947;-79
2021/04/05 07:02:59;;;;;;;;;;;;;;;;;;1488431;40;20273;-80
2021/04/05 07:04:14;;;;;;;;;;;;;;;;;;1488528;40;20029;-79
2021/04/05 07:05:33;;;;;;;;;;;;;;;;;;1488691;40;19940;-79
2021/04/05 07:06:47;;;;;;;;;;;;;;;;;;1488736;40;19932;-79
2021/04/05 07:07:48;;;;;;;;;;;;;;;;;;1488655;40;19940;-79
2021/04/05 07:09:02;;;;;;;;;;;;;;;;;;1488778;40;20020;-79
2021/04/05 07:10:22;;;;;;;;;;;;;;;;;;1488530;40;20306;-79
2021/04/05 07:11:39;;;;;;;;;;;;;;;;;;1488804;40;19940;-79
2021/04/05 07:12:40;;;;;;;;;;;;;;;;;;1488942;39;19968;-81
2021/04/05 07:13:52;;;;;;;;;;;;;;;;;;1488531;40;19943;-80
2021/04/05 07:15:11;;;;;;;;;;;;;;;;;;1488660;40;20328;-80
2021/04/05 07:16:31;;;;;;;;;;;;;;;;;;1488949;40;19974;-80
2021/04/05 07:17:32;;;;;;;;;;;;;;;;;;1489242;40;19944;-81
2021/04/05 07:18:51;;;;;;;;;;;;;;;;;;1488165;40;19991;-80
2021/04/05 07:19:57;;;;;;;;;;;;;;;;;;1488665;40;20285;-82